sensor_id;sensor_type;location;lat;lon;timestamp;pressure;altitude;pressure_sealevel;temperature;humidity
80678;BME280;70042;52.494;5.502;2024-01-16T00:01:25;100919.19;;;17.26;58.22
80678;BME280;70042;52.494;5.502;2024-01-16T00:03:50;100918.28;;;17.27;58.09
80678;BME280;70042;52.494;5.502;2024-01-16T00:06:16;100932.38;;;17.26;58.38
80678;BME280;70042;52.494;5.502;2024-01-16T00:08:41;100931.50;;;17.25;58.67
80678;BME280;70042;52.494;5.502;2024-01-16T00:11:06;100931.50;;;17.25;58.68
80678;BME280;70042;52.494;5.502;2024-01-16T00:13:32;100931.50;;;17.25;58.74
80678;BME280;70042;52.494;5.502;2024-01-16T00:15:58;100932.38;;;17.26;58.81
80678;BME280;70042;52.494;5.502;2024-01-16T00:18:23;100928.00;;;17.25;58.77
80678;BME280;70042;52.494;5.502;2024-01-16T00:20:49;100928.03;;;17.23;59.00
80678;BME280;70042;52.494;5.502;2024-01-16T00:23:14;100922.75;;;17.23;58.83
80678;BME280;70042;52.494;5.502;2024-01-16T00:25:40;100912.22;;;17.22;59.01
80678;BME280;70042;52.494;5.502;2024-01-16T00:28:06;100928.97;;;17.21;58.87
80678;BME280;70042;52.494;5.502;2024-01-16T00:30:31;100930.75;;;17.19;59.28
80678;BME280;70042;52.494;5.502;2024-01-16T00:32:58;100926.38;;;17.19;59.33
80678;BME280;70042;52.494;5.502;2024-01-16T00:35:24;100935.16;;;17.18;59.39
80678;BME280;70042;52.494;5.502;2024-01-16T00:37:49;100936.91;;;17.19;59.71
80678;BME280;70042;52.494;5.502;2024-01-16T00:40:15;100938.66;;;17.20;59.09
80678;BME280;70042;52.494;5.502;2024-01-16T00:42:40;100941.31;;;17.20;59.34
80678;BME280;70042;52.494;5.502;2024-01-16T00:45:06;100946.59;;;17.20;59.24
80678;BME280;70042;52.494;5.502;2024-01-16T00:47:32;100949.22;;;17.20;59.49
80678;BME280;70042;52.494;5.502;2024-01-16T00:49:58;100946.59;;;17.20;59.24
80678;BME280;70042;52.494;5.502;2024-01-16T00:52:26;100950.13;;;17.19;59.02
80678;BME280;70042;52.494;5.502;2024-01-16T00:54:51;100955.41;;;17.19;59.46
80678;BME280;70042;52.494;5.502;2024-01-16T00:57:17;100944.03;;;17.17;59.35
80678;BME280;70042;52.494;5.502;2024-01-16T00:59:47;100948.41;;;17.17;59.28
80678;BME280;70042;52.494;5.502;2024-01-16T01:02:14;100955.47;;;17.16;59.66
80678;BME280;70042;52.494;5.502;2024-01-16T01:04:39;100951.06;;;17.15;59.63
80678;BME280;70042;52.494;5.502;2024-01-16T01:07:07;100951.13;;;17.14;59.97
80678;BME280;70042;52.494;5.502;2024-01-16T01:09:33;100948.50;;;17.14;59.81
80678;BME280;70042;52.494;5.502;2024-01-16T01:11:58;100944.94;;;17.15;59.83
80678;BME280;70042;52.494;5.502;2024-01-16T01:14:24;100944.97;;;17.13;59.87
80678;BME280;70042;52.494;5.502;2024-01-16T01:16:51;100954.66;;;17.14;59.71
80678;BME280;70042;52.494;5.502;2024-01-16T01:19:16;100953.78;;;17.14;60.03
80678;BME280;70042;52.494;5.502;2024-01-16T01:21:41;100944.09;;;17.14;59.97
80678;BME280;70042;52.494;5.502;2024-01-16T01:24:07;100940.56;;;17.14;59.85
80678;BME280;70042;52.494;5.502;2024-01-16T01:26:33;100937.06;;;17.13;59.93
80678;BME280;70042;52.494;5.502;2024-01-16T01:28:58;100936.16;;;17.14;59.97
80678;BME280;70042;52.494;5.502;2024-01-16T01:31:24;100943.22;;;17.12;59.96
80678;BME280;70042;52.494;5.502;2024-01-16T01:33:49;100940.59;;;17.12;59.95
80678;BME280;70042;52.494;5.502;2024-01-16T01:36:15;100936.22;;;17.11;60.24
80678;BME280;70042;52.494;5.502;2024-01-16T01:38:40;100936.25;;;17.10;60.06
80678;BME280;70042;52.494;5.502;2024-01-16T01:41:06;100938.88;;;17.10;60.26
80678;BME280;70042;52.494;5.502;2024-01-16T01:43:31;100936.25;;;17.10;59.95
80678;BME280;70042;52.494;5.502;2024-01-16T01:48:35;100938.88;;;17.11;60.21
80678;BME280;70042;52.494;5.502;2024-01-16T01:51:01;100936.22;;;17.11;60.35
80678;BME280;70042;52.494;5.502;2024-01-16T01:53:27;100948.56;;;17.11;60.15
80678;BME280;70042;52.494;5.502;2024-01-16T01:55:54;100938.88;;;17.11;59.94
80678;BME280;70042;52.494;5.502;2024-01-16T01:58:20;100943.28;;;17.11;60.24
80678;BME280;70042;52.494;5.502;2024-01-16T02:00:46;100939.75;;;17.10;60.30
80678;BME280;70042;52.494;5.502;2024-01-16T02:03:12;100939.78;;;17.08;60.23
80678;BME280;70042;52.494;5.502;2024-01-16T02:05:38;100944.22;;;17.08;60.52
80678;BME280;70042;52.494;5.502;2024-01-16T02:08:04;100944.22;;;17.08;60.30
80678;BME280;70042;52.494;5.502;2024-01-16T02:10:31;100949.50;;;17.08;60.43
80678;BME280;70042;52.494;5.502;2024-01-16T02:12:57;100949.50;;;17.08;60.36
80678;BME280;70042;52.494;5.502;2024-01-16T02:15:23;100945.09;;;17.07;60.27
80678;BME280;70042;52.494;5.502;2024-01-16T02:17:49;100949.50;;;17.08;60.40
80678;BME280;70042;52.494;5.502;2024-01-16T02:20:14;100943.34;;;17.08;60.36
80678;BME280;70042;52.494;5.502;2024-01-16T02:22:42;100947.69;;;17.08;60.30
80678;BME280;70042;52.494;5.502;2024-01-16T02:25:11;100945.06;;;17.08;60.18
80678;BME280;70042;52.494;5.502;2024-01-16T02:27:36;100949.50;;;17.08;60.46
80678;BME280;70042;52.494;5.502;2024-01-16T02:30:02;100952.13;;;17.08;60.34
80678;BME280;70042;52.494;5.502;2024-01-16T02:32:28;100946.84;;;17.08;60.38
80678;BME280;70042;52.494;5.502;2024-01-16T02:34:53;100946.00;;;17.06;60.24
80678;BME280;70042;52.494;5.502;2024-01-16T02:37:19;100938.97;;;17.05;60.34
80678;BME280;70042;52.494;5.502;2024-01-16T02:39:44;100935.50;;;17.03;60.58
80678;BME280;70042;52.494;5.502;2024-01-16T02:42:10;100939.00;;;17.03;60.44
80678;BME280;70042;52.494;5.502;2024-01-16T02:44:35;100938.13;;;17.03;60.68
80678;BME280;70042;52.494;5.502;2024-01-16T02:47:01;100939.03;;;17.02;60.56
80678;BME280;70042;52.494;5.502;2024-01-16T02:49:26;100940.84;;;17.01;60.68
80678;BME280;70042;52.494;5.502;2024-01-16T02:51:52;100937.31;;;17.01;60.47
80678;BME280;70042;52.494;5.502;2024-01-16T02:54:18;100938.19;;;17.01;60.63
80678;BME280;70042;52.494;5.502;2024-01-16T02:56:43;100933.81;;;17.00;60.86
80678;BME280;70042;52.494;5.502;2024-01-16T02:59:09;100937.31;;;17.01;60.48
80678;BME280;70042;52.494;5.502;2024-01-16T03:01:34;100936.41;;;17.02;60.94
80678;BME280;70042;52.494;5.502;2024-01-16T03:04:00;100932.00;;;17.02;60.66
80678;BME280;70042;52.494;5.502;2024-01-16T03:06:25;100942.53;;;17.04;60.64
80678;BME280;70042;52.494;5.502;2024-01-16T03:08:51;100924.94;;;17.03;60.74
80678;BME280;70042;52.494;5.502;2024-01-16T03:11:17;100938.13;;;17.04;60.48
80678;BME280;70042;52.494;5.502;2024-01-16T03:13:43;100937.25;;;17.04;60.56
80678;BME280;70042;52.494;5.502;2024-01-16T03:16:11;100930.16;;;17.06;60.46
80678;BME280;70042;52.494;5.502;2024-01-16T03:18:37;100930.16;;;17.06;60.26
80678;BME280;70042;52.494;5.502;2024-01-16T03:21:05;100928.41;;;17.05;60.38
80678;BME280;70042;52.494;5.502;2024-01-16T03:23:30;100927.53;;;17.06;60.51
80678;BME280;70042;52.494;5.502;2024-01-16T03:25:56;100924.88;;;17.06;60.31
80678;BME280;70042;52.494;5.502;2024-01-16T03:28:22;100924.00;;;17.05;60.46
80678;BME280;70042;52.494;5.502;2024-01-16T03:30:47;100927.56;;;17.04;60.47
80678;BME280;70042;52.494;5.502;2024-01-16T03:33:13;100926.69;;;17.04;60.80
80678;BME280;70042;52.494;5.502;2024-01-16T03:35:38;100931.97;;;17.04;60.45
80678;BME280;70042;52.494;5.502;2024-01-16T03:38:03;100929.34;;;17.04;60.85
80678;BME280;70042;52.494;5.502;2024-01-16T03:40:29;100927.59;;;17.03;60.36
80678;BME280;70042;52.494;5.502;2024-01-16T03:42:59;100933.75;;;17.02;60.48
80678;BME280;70042;52.494;5.502;2024-01-16T03:45:24;100928.47;;;17.02;60.43
80678;BME280;70042;52.494;5.502;2024-01-16T03:47:50;100930.22;;;17.03;60.44
80678;BME280;70042;52.494;5.502;2024-01-16T03:50:15;100925.81;;;17.03;60.33
80678;BME280;70042;52.494;5.502;2024-01-16T03:52:41;100930.22;;;17.03;60.44
80678;BME280;70042;52.494;5.502;2024-01-16T03:55:06;100930.22;;;17.03;60.33
80678;BME280;70042;52.494;5.502;2024-01-16T03:57:32;100934.63;;;17.02;60.62
80678;BME280;70042;52.494;5.502;2024-01-16T03:59:57;100935.50;;;17.03;60.61
80678;BME280;70042;52.494;5.502;2024-01-16T04:02:23;100932.88;;;17.03;60.62
80678;BME280;70042;52.494;5.502;2024-01-16T04:04:49;100933.75;;;17.02;60.69
80678;BME280;70042;52.494;5.502;2024-01-16T04:07:14;100934.63;;;17.02;60.40
80678;BME280;70042;52.494;5.502;2024-01-16T04:09:39;100934.69;;;17.01;60.49
80678;BME280;70042;52.494;5.502;2024-01-16T04:12:07;100936.44;;;17.00;60.45
80678;BME280;70042;52.494;5.502;2024-01-16T04:14:33;100938.22;;;17.00;60.58
80678;BME280;70042;52.494;5.502;2024-01-16T04:16:58;100936.50;;;16.97;60.56
80678;BME280;70042;52.494;5.502;2024-01-16T04:19:24;100925.94;;;16.97;60.63
80678;BME280;70042;52.494;5.502;2024-01-16T04:21:49;100940.91;;;16.97;60.66
80678;BME280;70042;52.494;5.502;2024-01-16T04:24:14;100932.13;;;16.96;60.80
80678;BME280;70042;52.494;5.502;2024-01-16T04:26:40;100934.75;;;16.98;60.65
80678;BME280;70042;52.494;5.502;2024-01-16T04:29:05;100936.47;;;16.99;60.60
80678;BME280;70042;52.494;5.502;2024-01-16T04:31:32;100933.88;;;16.97;60.64
80678;BME280;70042;52.494;5.502;2024-01-16T04:33:58;100942.66;;;16.98;60.71
80678;BME280;70042;52.494;5.502;2024-01-16T04:36:23;100943.53;;;16.98;60.61
80678;BME280;70042;52.494;5.502;2024-01-16T04:38:49;100948.81;;;16.98;60.56
80678;BME280;70042;52.494;5.502;2024-01-16T04:41:18;100945.25;;;16.99;60.64
80678;BME280;70042;52.494;5.502;2024-01-16T04:43:44;100952.28;;;16.99;60.28
80678;BME280;70042;52.494;5.502;2024-01-16T04:46:10;100940.91;;;16.97;60.43
80678;BME280;70042;52.494;5.502;2024-01-16T04:48:35;100955.84;;;16.98;60.29
80678;BME280;70042;52.494;5.502;2024-01-16T04:51:01;100951.47;;;16.97;60.80
80678;BME280;70042;52.494;5.502;2024-01-16T04:53:26;100940.09;;;16.95;60.81
80678;BME280;70042;52.494;5.502;2024-01-16T04:55:52;100932.16;;;16.95;60.41
80678;BME280;70042;52.494;5.502;2024-01-16T04:58:18;100929.53;;;16.95;60.68
80678;BME280;70042;52.494;5.502;2024-01-16T05:00:43;100921.63;;;16.95;60.80
80678;BME280;70042;52.494;5.502;2024-01-16T05:03:09;100933.88;;;16.96;60.43
80678;BME280;70042;52.494;5.502;2024-01-16T05:05:34;100930.41;;;16.95;60.50
80678;BME280;70042;52.494;5.502;2024-01-16T05:08:03;100929.47;;;16.96;60.44
80678;BME280;70042;52.494;5.502;2024-01-16T05:10:28;100914.56;;;16.95;60.25
80678;BME280;70042;52.494;5.502;2024-01-16T05:12:54;100928.59;;;16.96;60.57
80678;BME280;70042;52.494;5.502;2024-01-16T05:15:19;100920.66;;;16.97;60.48
80678;BME280;70042;52.494;5.502;2024-01-16T05:17:45;100910.13;;;16.96;60.36
80678;BME280;70042;52.494;5.502;2024-01-16T05:20:11;100914.53;;;16.97;60.44
80678;BME280;70042;52.494;5.502;2024-01-16T05:22:36;100911.94;;;16.95;60.75
80678;BME280;70042;52.494;5.502;2024-01-16T05:25:04;100904.91;;;16.93;60.48
80678;BME280;70042;52.494;5.502;2024-01-16T05:27:32;100913.75;;;16.92;60.16
80678;BME280;70042;52.494;5.502;2024-01-16T05:29:58;100909.38;;;16.91;60.63
80678;BME280;70042;52.494;5.502;2024-01-16T05:32:23;100911.13;;;16.92;60.58
80678;BME280;70042;52.494;5.502;2024-01-16T05:34:49;100900.56;;;16.92;60.56
80678;BME280;70042;52.494;5.502;2024-01-16T05:37:14;100906.69;;;16.92;60.58
80678;BME280;70042;52.494;5.502;2024-01-16T05:39:39;100901.41;;;16.92;60.68
80678;BME280;70042;52.494;5.502;2024-01-16T05:42:05;100903.16;;;16.93;60.51
80678;BME280;70042;52.494;5.502;2024-01-16T05:44:30;100890.84;;;16.92;60.52
80678;BME280;70042;52.494;5.502;2024-01-16T05:46:56;100889.09;;;16.93;60.62
80678;BME280;70042;52.494;5.502;2024-01-16T05:49:21;100897.88;;;16.93;60.54
80678;BME280;70042;52.494;5.502;2024-01-16T05:51:46;100895.22;;;16.93;60.54
80678;BME280;70042;52.494;5.502;2024-01-16T05:54:12;100892.66;;;16.92;60.40
80678;BME280;70042;52.494;5.502;2024-01-16T05:56:37;100892.66;;;16.92;60.73
80678;BME280;70042;52.494;5.502;2024-01-16T05:59:03;100890.03;;;16.90;60.58
80678;BME280;70042;52.494;5.502;2024-01-16T06:01:28;100884.78;;;16.89;60.36
80678;BME280;70042;52.494;5.502;2024-01-16T06:03:54;100892.72;;;16.89;60.64
80678;BME280;70042;52.494;5.502;2024-01-16T06:06:19;100886.56;;;16.88;60.39
80678;BME280;70042;52.494;5.502;2024-01-16T06:08:45;100887.44;;;16.89;60.59
80678;BME280;70042;52.494;5.502;2024-01-16T06:11:10;100894.44;;;16.90;60.56
80678;BME280;70042;52.494;5.502;2024-01-16T06:13:36;100890.91;;;16.89;60.35
80678;BME280;70042;52.494;5.502;2024-01-16T06:16:01;100890.91;;;16.91;60.31
80678;BME280;70042;52.494;5.502;2024-01-16T06:18:28;100895.28;;;16.92;59.95
80678;BME280;70042;52.494;5.502;2024-01-16T06:20:53;100899.72;;;16.90;60.08
80678;BME280;70042;52.494;5.502;2024-01-16T06:23:18;100904.09;;;16.91;60.10
80678;BME280;70042;52.494;5.502;2024-01-16T06:25:44;100902.31;;;16.91;59.90
80678;BME280;70042;52.494;5.502;2024-01-16T06:28:09;100902.34;;;16.90;59.95
80678;BME280;70042;52.494;5.502;2024-01-16T06:30:35;100902.31;;;16.91;60.07
80678;BME280;70042;52.494;5.502;2024-01-16T06:33:00;100904.09;;;16.91;60.43
80678;BME280;70042;52.494;5.502;2024-01-16T06:35:25;100904.03;;;16.92;59.88
80678;BME280;70042;52.494;5.502;2024-01-16T06:37:51;100898.81;;;16.91;60.06
80678;BME280;70042;52.494;5.502;2024-01-16T06:40:16;100904.91;;;16.94;60.13
80678;BME280;70042;52.494;5.502;2024-01-16T06:42:42;100918.06;;;16.96;60.09
80678;BME280;70042;52.494;5.502;2024-01-16T06:45:07;100908.38;;;16.96;59.80
80678;BME280;70042;52.494;5.502;2024-01-16T06:47:33;100913.56;;;16.99;59.79
80678;BME280;70042;52.494;5.502;2024-01-16T06:49:58;100911.81;;;17.00;59.77
80678;BME280;70042;52.494;5.502;2024-01-16T06:52:24;100915.31;;;17.00;59.82
80678;BME280;70042;52.494;5.502;2024-01-16T06:54:50;100901.31;;;16.98;59.31
80678;BME280;70042;52.494;5.502;2024-01-16T06:57:15;100898.69;;;16.97;59.13
80678;BME280;70042;52.494;5.502;2024-01-16T06:59:41;100904.84;;;16.97;58.97
80678;BME280;70042;52.494;5.502;2024-01-16T07:02:06;100902.22;;;16.96;59.02
80678;BME280;70042;52.494;5.502;2024-01-16T07:04:33;100896.94;;;16.96;59.05
80678;BME280;70042;52.494;5.502;2024-01-16T07:06:58;100897.84;;;16.95;58.90
80678;BME280;70042;52.494;5.502;2024-01-16T07:09:26;100906.59;;;16.97;59.33
80678;BME280;70042;52.494;5.502;2024-01-16T07:11:53;100904.84;;;16.96;59.34
80678;BME280;70042;52.494;5.502;2024-01-16T07:14:18;100896.94;;;16.96;59.18
80678;BME280;70042;52.494;5.502;2024-01-16T07:16:45;100909.31;;;16.94;59.18
80678;BME280;70042;52.494;5.502;2024-01-16T07:19:10;100905.78;;;16.95;59.24
80678;BME280;70042;52.494;5.502;2024-01-16T07:21:37;100909.28;;;16.95;59.38
80678;BME280;70042;52.494;5.502;2024-01-16T07:24:02;100909.38;;;16.91;59.63
80678;BME280;70042;52.494;5.502;2024-01-16T07:26:28;100902.34;;;16.90;59.42
80678;BME280;70042;52.494;5.502;2024-01-16T07:28:54;100911.13;;;16.92;59.56
80678;BME280;70042;52.494;5.502;2024-01-16T07:31:20;100906.66;;;16.94;59.36
80678;BME280;70042;52.494;5.502;2024-01-16T07:33:45;100917.22;;;16.94;59.24
80678;BME280;70042;52.494;5.502;2024-01-16T07:36:11;100908.41;;;16.95;59.44
80678;BME280;70042;52.494;5.502;2024-01-16T07:38:37;100911.06;;;16.95;59.26
80678;BME280;70042;52.494;5.502;2024-01-16T07:41:03;100909.25;;;16.97;59.35
80678;BME280;70042;52.494;5.502;2024-01-16T07:43:33;100906.53;;;17.00;59.33
80678;BME280;70042;52.494;5.502;2024-01-16T07:45:58;100902.09;;;17.02;59.28
80678;BME280;70042;52.494;5.502;2024-01-16T07:48:24;100909.09;;;17.03;58.99
80678;BME280;70042;52.494;5.502;2024-01-16T07:50:50;100912.56;;;17.05;59.03
80678;BME280;70042;52.494;5.502;2024-01-16T07:53:15;100914.31;;;17.06;58.91
80678;BME280;70042;52.494;5.502;2024-01-16T07:55:41;100926.63;;;17.07;58.92
80678;BME280;70042;52.494;5.502;2024-01-16T07:58:11;100924.88;;;17.06;58.88
80678;BME280;70042;52.494;5.502;2024-01-16T08:00:36;100922.28;;;17.04;58.92
80678;BME280;70042;52.494;5.502;2024-01-16T08:03:02;100926.72;;;17.02;59.06
80678;BME280;70042;52.494;5.502;2024-01-16T08:05:28;100939.03;;;17.02;58.94
80678;BME280;70042;52.494;5.502;2024-01-16T08:07:58;100930.28;;;17.00;58.95
80678;BME280;70042;52.494;5.502;2024-01-16T08:10:24;100930.28;;;17.00;59.09
80678;BME280;70042;52.494;5.502;2024-01-16T08:12:50;100920.66;;;16.97;58.65
80678;BME280;70042;52.494;5.502;2024-01-16T08:15:15;100925.06;;;16.97;58.83
80678;BME280;70042;52.494;5.502;2024-01-16T08:17:41;100919.81;;;16.97;58.69
80678;BME280;70042;52.494;5.502;2024-01-16T08:20:07;100920.66;;;16.97;58.63
80678;BME280;70042;52.494;5.502;2024-01-16T08:22:36;100925.13;;;16.95;58.73
80678;BME280;70042;52.494;5.502;2024-01-16T08:25:02;100936.56;;;16.94;58.86
80678;BME280;70042;52.494;5.502;2024-01-16T08:27:33;100926.03;;;16.93;58.93
80678;BME280;70042;52.494;5.502;2024-01-16T08:29:59;100928.59;;;16.96;59.03
80678;BME280;70042;52.494;5.502;2024-01-16T08:32:24;100931.22;;;16.97;59.30
80678;BME280;70042;52.494;5.502;2024-01-16T08:34:50;100929.47;;;16.98;59.30
80678;BME280;70042;52.494;5.502;2024-01-16T08:37:15;100936.44;;;17.00;59.36
80678;BME280;70042;52.494;5.502;2024-01-16T08:39:41;100943.47;;;17.01;59.24
80678;BME280;70042;52.494;5.502;2024-01-16T08:42:07;100940.72;;;17.06;59.08
80678;BME280;70042;52.494;5.502;2024-01-16T08:44:32;100945.09;;;17.07;58.87
80678;BME280;70042;52.494;5.502;2024-01-16T08:46:58;100943.28;;;17.09;59.18
80678;BME280;70042;52.494;5.502;2024-01-16T08:49:24;100950.25;;;17.13;60.25
80678;BME280;70042;52.494;5.502;2024-01-16T08:51:50;100947.56;;;17.15;59.16
80678;BME280;70042;52.494;5.502;2024-01-16T08:54:16;100944.09;;;17.14;59.07
80678;BME280;70042;52.494;5.502;2024-01-16T08:56:41;100950.25;;;17.13;58.99
80678;BME280;70042;52.494;5.502;2024-01-16T08:59:07;100952.03;;;17.13;59.54
80678;BME280;70042;52.494;5.502;2024-01-16T09:01:33;100942.34;;;17.13;58.89
80678;BME280;70042;52.494;5.502;2024-01-16T09:03:58;100949.38;;;17.14;58.83
80678;BME280;70042;52.494;5.502;2024-01-16T09:06:24;100944.97;;;17.13;58.83
80678;BME280;70042;52.494;5.502;2024-01-16T09:08:49;100950.19;;;17.15;58.79
80678;BME280;70042;52.494;5.502;2024-01-16T09:11:15;100937.00;;;17.16;59.03
80678;BME280;70042;52.494;5.502;2024-01-16T09:13:40;100933.47;;;17.17;58.64
80678;BME280;70042;52.494;5.502;2024-01-16T09:16:06;100935.16;;;17.18;58.88
80678;BME280;70042;52.494;5.502;2024-01-16T09:18:31;100934.25;;;17.21;58.78
80678;BME280;70042;52.494;5.502;2024-01-16T09:20:57;100931.63;;;17.19;58.80
80678;BME280;70042;52.494;5.502;2024-01-16T09:23:23;100920.28;;;17.16;59.00
80678;BME280;70042;52.494;5.502;2024-01-16T09:25:49;100917.69;;;17.14;58.92
80678;BME280;70042;52.494;5.502;2024-01-16T09:28:15;100918.56;;;17.13;58.98
80678;BME280;70042;52.494;5.502;2024-01-16T09:30:41;100908.00;;;17.13;58.75
80678;BME280;70042;52.494;5.502;2024-01-16T09:33:07;100909.84;;;17.11;58.91
80678;BME280;70042;52.494;5.502;2024-01-16T09:35:34;100918.56;;;17.13;58.86
80678;BME280;70042;52.494;5.502;2024-01-16T09:38:00;100922.97;;;17.14;58.62
80678;BME280;70042;52.494;5.502;2024-01-16T09:40:26;100925.59;;;17.14;58.82
80678;BME280;70042;52.494;5.502;2024-01-16T09:42:51;100922.97;;;17.14;59.03
80678;BME280;70042;52.494;5.502;2024-01-16T09:45:19;100930.84;;;17.16;58.88
80678;BME280;70042;52.494;5.502;2024-01-16T09:47:48;100924.66;;;17.17;58.79
80678;BME280;70042;52.494;5.502;2024-01-16T09:50:15;100922.91;;;17.17;58.91
80678;BME280;70042;52.494;5.502;2024-01-16T09:52:46;100925.50;;;17.19;59.08
80678;BME280;70042;52.494;5.502;2024-01-16T09:55:13;100931.63;;;17.19;59.07
80678;BME280;70042;52.494;5.502;2024-01-16T09:57:40;100920.19;;;17.20;59.16
80678;BME280;70042;52.494;5.502;2024-01-16T10:00:10;100920.19;;;17.20;58.92
80678;BME280;70042;52.494;5.502;2024-01-16T10:02:39;100915.72;;;17.22;59.07
80678;BME280;70042;52.494;5.502;2024-01-16T10:05:06;100908.69;;;17.21;58.85
80678;BME280;70042;52.494;5.502;2024-01-16T10:07:35;100913.91;;;17.24;59.04
80678;BME280;70042;52.494;5.502;2024-01-16T10:10:00;100918.28;;;17.27;59.00
80678;BME280;70042;52.494;5.502;2024-01-16T10:12:26;100908.56;;;17.27;58.62
80678;BME280;70042;52.494;5.502;2024-01-16T10:14:53;100905.03;;;17.28;58.91
80678;BME280;70042;52.494;5.502;2024-01-16T10:17:19;100901.50;;;17.29;58.64
80678;BME280;70042;52.494;5.502;2024-01-16T10:19:52;100902.47;;;17.25;58.78
80678;BME280;70042;52.494;5.502;2024-01-16T10:22:24;100905.09;;;17.25;58.84
80678;BME280;70042;52.494;5.502;2024-01-16T10:24:50;100900.78;;;17.21;59.12
80678;BME280;70042;52.494;5.502;2024-01-16T10:27:22;100899.06;;;17.20;59.16
80678;BME280;70042;52.494;5.502;2024-01-16T10:29:57;100896.44;;;17.19;59.08
80678;BME280;70042;52.494;5.502;2024-01-16T10:32:42;100896.44;;;17.20;58.99
80678;BME280;70042;52.494;5.502;2024-01-16T10:35:12;100891.16;;;17.20;59.48
80678;BME280;70042;52.494;5.502;2024-01-16T10:37:48;100883.16;;;17.22;59.23
80678;BME280;70042;52.494;5.502;2024-01-16T10:40:21;100889.31;;;17.22;59.23
80678;BME280;70042;52.494;5.502;2024-01-16T10:43:01;100875.22;;;17.23;59.17
80678;BME280;70042;52.494;5.502;2024-01-16T10:45:28;100876.94;;;17.24;58.99
80678;BME280;70042;52.494;5.502;2024-01-16T10:48:04;100882.22;;;17.26;58.93
80678;BME280;70042;52.494;5.502;2024-01-16T10:50:34;100883.09;;;17.25;59.00
80678;BME280;70042;52.494;5.502;2024-01-16T10:53:06;100884.94;;;17.21;59.21
80678;BME280;70042;52.494;5.502;2024-01-16T10:55:42;100889.38;;;17.21;58.95
80678;BME280;70042;52.494;5.502;2024-01-16T10:58:09;100885.88;;;17.20;59.19
80678;BME280;70042;52.494;5.502;2024-01-16T11:00:39;100882.34;;;17.20;59.09
80678;BME280;70042;52.494;5.502;2024-01-16T11:03:08;100881.47;;;17.21;59.18
80678;BME280;70042;52.494;5.502;2024-01-16T11:05:35;100875.31;;;17.20;59.17
80678;BME280;70042;52.494;5.502;2024-01-16T11:08:02;100877.94;;;17.20;59.26
80678;BME280;70042;52.494;5.502;2024-01-16T11:10:31;100865.63;;;17.21;59.15
80678;BME280;70042;52.494;5.502;2024-01-16T11:13:00;100860.34;;;17.21;59.34
80678;BME280;70042;52.494;5.502;2024-01-16T11:15:27;100863.78;;;17.23;58.79
80678;BME280;70042;52.494;5.502;2024-01-16T11:17:55;100865.50;;;17.25;58.79
80678;BME280;70042;52.494;5.502;2024-01-16T11:20:21;100854.03;;;17.26;58.74
80678;BME280;70042;52.494;5.502;2024-01-16T11:22:47;100852.22;;;17.28;58.66
80678;BME280;70042;52.494;5.502;2024-01-16T11:25:16;100854.03;;;17.26;58.71
80678;BME280;70042;52.494;5.502;2024-01-16T11:27:43;100850.47;;;17.27;58.89
80678;BME280;70042;52.494;5.502;2024-01-16T11:30:10;100849.56;;;17.28;58.44
80678;BME280;70042;52.494;5.502;2024-01-16T11:32:38;100841.59;;;17.31;58.20
80678;BME280;70042;52.494;5.502;2024-01-16T11:35:08;100842.44;;;17.32;58.06
80678;BME280;70042;52.494;5.502;2024-01-16T11:37:35;100843.28;;;17.34;58.17
80678;BME280;70042;52.494;5.502;2024-01-16T11:42:50;100833.59;;;17.34;58.02
80678;BME280;70042;52.494;5.502;2024-01-16T11:48:13;100831.81;;;17.35;57.68
80678;BME280;70042;52.494;5.502;2024-01-16T11:50:39;100826.53;;;17.35;57.86
80678;BME280;70042;52.494;5.502;2024-01-16T11:53:05;100822.94;;;17.37;57.66
80678;BME280;70042;52.494;5.502;2024-01-16T11:55:31;100821.97;;;17.41;57.59
80678;BME280;70042;52.494;5.502;2024-01-16T11:58:15;100820.22;;;17.40;57.62
80678;BME280;70042;52.494;5.502;2024-01-16T12:00:49;100813.22;;;17.39;57.92
80678;BME280;70042;52.494;5.502;2024-01-16T12:03:21;100818.53;;;17.39;57.92
80678;BME280;70042;52.494;5.502;2024-01-16T12:05:57;100819.34;;;17.41;57.92
80678;BME280;70042;52.494;5.502;2024-01-16T12:08:23;100812.31;;;17.40;58.01
80678;BME280;70042;52.494;5.502;2024-01-16T12:10:49;100812.28;;;17.42;57.82
80678;BME280;70042;52.494;5.502;2024-01-16T12:13:14;100818.44;;;17.42;58.06
80678;BME280;70042;52.494;5.502;2024-01-16T12:15:40;100809.66;;;17.42;58.00
80678;BME280;70042;52.494;5.502;2024-01-16T12:18:07;100813.97;;;17.44;57.88
80678;BME280;70042;52.494;5.502;2024-01-16T12:20:35;100806.06;;;17.44;57.95
80678;BME280;70042;52.494;5.502;2024-01-16T12:23:04;100804.28;;;17.45;57.57
80678;BME280;70042;52.494;5.502;2024-01-16T12:25:31;100806.06;;;17.44;57.70
80678;BME280;70042;52.494;5.502;2024-01-16T12:28:01;100806.06;;;17.44;57.74
80678;BME280;70042;52.494;5.502;2024-01-16T12:30:37;100799.91;;;17.44;57.68
80678;BME280;70042;52.494;5.502;2024-01-16T12:33:04;100793.72;;;17.45;57.69
80678;BME280;70042;52.494;5.502;2024-01-16T12:35:35;100797.25;;;17.44;58.04
80678;BME280;70042;52.494;5.502;2024-01-16T12:38:02;100790.22;;;17.44;57.68
80678;BME280;70042;52.494;5.502;2024-01-16T12:40:29;100797.22;;;17.45;57.98
80678;BME280;70042;52.494;5.502;2024-01-16T12:42:54;100788.38;;;17.46;57.94
80678;BME280;70042;52.494;5.502;2024-01-16T12:45:20;100790.22;;;17.44;57.82
80678;BME280;70042;52.494;5.502;2024-01-16T12:47:53;100783.19;;;17.43;57.94
80678;BME280;70042;52.494;5.502;2024-01-16T12:50:21;100788.47;;;17.43;57.75
80678;BME280;70042;52.494;5.502;2024-01-16T12:53:00;100784.09;;;17.42;57.67
80678;BME280;70042;52.494;5.502;2024-01-16T12:55:25;100785.78;;;17.45;57.70